Time;durP1;ratioP1;P1;durP2;ratioP2;P2;SDS_P1;SDS_P2;PMS_P1;PMS_P2;Temp;Humidity;BMP_temperature;BMP_pressure;BME280_temperature;BME280_humidity;BME280_pressure;Samples;Min_cycle;Max_cycle;Signal;HPM_P1;HPM_P2
2022/01/31 00:02:22;;;;;;;63.17;6.75;;;;;;;2.66;100.00;101319.22;4903107;29;20028;-76
2022/01/31 00:04:48;;;;;;;50.30;6.10;;;;;;;2.65;100.00;101307.19;4910252;29;20044;-76
2022/01/31 00:07:13;;;;;;;55.92;6.60;;;;;;;2.45;100.00;101292.72;4897942;29;20622;-76
2022/01/31 00:09:44;;;;;;;51.53;5.93;;;;;;;2.53;100.00;101294.91;4890030;29;20106;-76
2022/01/31 00:12:17;;;;;;;53.00;6.38;;;;;;;2.49;100.00;101283.03;4885688;29;20397;-76
2022/01/31 00:14:46;;;;;;;46.17;7.07;;;;;;;2.53;100.00;101279.34;4873917;29;20075;-76
2022/01/31 00:17:13;;;;;;;47.15;6.57;;;;;;;2.44;100.00;101269.47;4879641;29;20039;-81
2022/01/31 00:19:40;;;;;;;43.45;6.07;;;;;;;2.41;100.00;101262.72;4897344;29;20531;-76
2022/01/31 00:22:08;;;;;;;49.58;6.50;;;;;;;2.51;100.00;101263.91;4910086;29;20054;-76
2022/01/31 00:24:34;;;;;;;52.17;7.07;;;;;;;2.38;100.00;101257.69;4894237;29;20072;-76
2022/01/31 00:27:01;;;;;;;55.75;7.45;;;;;;;2.49;100.00;101246.78;4880132;29;20481;-75
2022/01/31 00:29:26;;;;;;;52.45;6.15;;;;;;;2.43;100.00;101218.59;4854331;29;20040;-75
2022/01/31 00:31:52;;;;;;;61.80;7.32;;;;;;;2.44;100.00;101209.94;4879086;29;20059;-75
2022/01/31 00:34:18;;;;;;;53.08;6.80;;;;;;;2.40;100.00;101198.91;4897852;29;20127;-75
2022/01/31 00:36:44;;;;;;;50.95;6.13;;;;;;;2.49;100.00;101197.56;4869216;29;20123;-76
2022/01/31 00:39:10;;;;;;;59.30;6.55;;;;;;;2.43;100.00;101185.78;4913684;29;20580;-76
2022/01/31 00:41:36;;;;;;;51.38;6.78;;;;;;;2.45;100.00;101183.09;4885410;29;20129;-75
2022/01/31 00:44:15;;;;;;;60.08;6.95;;;;;;;2.39;100.00;101166.16;4887747;29;20036;-77
2022/01/31 00:46:48;;;;;;;43.22;6.22;;;;;;;2.31;100.00;101158.78;4894996;29;20043;-76
2022/01/31 00:52:08;;;;;;;41.35;5.22;;;;;;;2.30;100.00;101141.59;4890510;29;20052;-76
2022/01/31 00:54:34;;;;;;;52.90;6.60;;;;;;;2.22;100.00;101132.56;4883619;29;20043;-76
2022/01/31 00:56:59;;;;;;;49.95;6.00;;;;;;;2.18;100.00;101113.78;4883598;29;20152;-76
2022/01/31 00:59:25;;;;;;;43.25;5.20;;;;;;;2.28;100.00;101108.94;4894903;29;20595;-76
2022/01/31 01:01:51;;;;;;;59.72;6.70;;;;;;;2.41;100.00;101102.19;4886158;29;20068;-77
2022/01/31 01:04:16;;;;;;;34.85;5.65;;;;;;;2.35;100.00;101105.09;4894502;29;20480;-76
2022/01/31 01:06:42;;;;;;;54.35;6.93;;;;;;;2.37;100.00;101100.66;4890054;29;20067;-76
2022/01/31 01:09:08;;;;;;;44.45;5.72;;;;;;;2.34;100.00;101083.56;4886244;29;20213;-78
2022/01/31 01:11:34;;;;;;;49.83;6.22;;;;;;;2.35;100.00;101081.81;4896154;29;20556;-76
2022/01/31 01:14:00;;;;;;;44.58;5.80;;;;;;;2.32;100.00;101062.09;4859076;29;20123;-74
2022/01/31 01:16:26;;;;;;;62.10;6.55;;;;;;;2.28;100.00;101039.91;4901677;23;20596;-79
2022/01/31 01:18:52;;;;;;;44.58;5.75;;;;;;;2.28;100.00;101039.03;4923687;29;20055;-76
2022/01/31 01:21:17;;;;;;;42.75;6.03;;;;;;;2.28;100.00;101034.72;4914048;29;20032;-78
2022/01/31 01:23:43;;;;;;;47.08;5.22;;;;;;;2.16;100.00;101008.69;4939600;29;20138;-78
2022/01/31 01:26:09;;;;;;;46.70;5.63;;;;;;;2.20;100.00;101021.34;4918058;28;20055;-77
2022/01/31 01:28:35;;;;;;;45.50;7.10;;;;;;;2.24;100.00;101017.72;4913997;29;20135;-79
2022/01/31 01:31:01;;;;;;;44.45;6.35;;;;;;;2.16;100.00;100996.56;4922916;29;20042;-78
2022/01/31 01:33:28;;;;;;;55.65;6.07;;;;;;;2.20;100.00;100979.94;4920898;29;20050;-77
2022/01/31 01:35:55;;;;;;;53.72;6.15;;;;;;;2.05;100.00;100939.41;4903733;29;20046;-77
2022/01/31 01:38:28;;;;;;;50.38;6.13;;;;;;;2.03;100.00;100944.66;4923034;29;20111;-77
2022/01/31 01:40:59;;;;;;;48.65;6.30;;;;;;;2.12;100.00;100941.56;4919786;29;20130;-78
2022/01/31 01:43:26;;;;;;;39.85;5.28;;;;;;;2.13;100.00;100938.06;4913029;29;20046;-77
2022/01/31 01:45:54;;;;;;;38.97;5.18;;;;;;;2.07;100.00;100922.03;4907446;29;20043;-77
2022/01/31 01:48:21;;;;;;;49.58;6.35;;;;;;;2.04;100.00;100920.47;4888683;29;20117;-77
2022/01/31 01:50:49;;;;;;;35.40;4.97;;;;;;;2.02;100.00;100906.78;4891086;29;20067;-78
2022/01/31 01:53:15;;;;;;;49.45;6.28;;;;;;;2.00;100.00;100900.03;4907320;29;20051;-78
2022/01/31 01:55:45;;;;;;;61.85;6.47;;;;;;;2.05;100.00;100904.00;4907757;29;20047;-78
2022/01/31 01:58:17;;;;;;;49.95;5.57;;;;;;;2.03;100.00;100908.44;4907229;29;20031;-78
2022/01/31 02:00:50;;;;;;;54.05;6.28;;;;;;;1.98;100.00;100900.13;4929094;29;20047;-78
2022/01/31 02:03:19;;;;;;;42.03;5.78;;;;;;;1.99;100.00;100888.84;4926910;29;20027;-79
2022/01/31 02:05:45;;;;;;;55.17;7.13;;;;;;;1.97;100.00;100876.94;4913594;29;20032;-77
2022/01/31 02:08:13;;;;;;;56.22;5.50;;;;;;;2.00;100.00;100876.75;4901051;29;20048;-79
2022/01/31 02:10:39;;;;;;;37.05;5.65;;;;;;;1.91;100.00;100855.66;4910343;29;20039;-78
2022/01/31 02:13:11;;;;;;;44.22;6.32;;;;;;;2.00;100.00;100853.44;4921792;29;20515;-77
2022/01/31 02:16:17;;;;;;;49.88;6.47;;;;;;;1.90;100.00;100832.47;4921073;29;20054;-78
2022/01/31 02:18:54;;;;;;;39.03;5.28;;;;;;;1.80;100.00;100827.00;4919340;29;20046;-76
2022/01/31 02:21:48;;;;;;;44.60;5.75;;;;;;;1.82;100.00;100819.97;4909216;29;20055;-78
2022/01/31 02:24:37;;;;;;;50.65;5.20;;;;;;;1.82;100.00;100808.81;4917539;29;20050;-78
2022/01/31 02:27:30;;;;;;;45.88;6.07;;;;;;;1.86;100.00;100802.53;4911010;29;20047;-78
2022/01/31 02:29:57;;;;;;;39.45;5.85;;;;;;;1.76;100.00;100791.88;4918438;29;20036;-78
2022/01/31 02:32:25;;;;;;;48.58;6.20;;;;;;;1.85;100.00;100795.69;4924998;29;20365;-77
2022/01/31 02:34:57;;;;;;;50.78;5.93;;;;;;;1.82;100.00;100790.69;4924394;29;20031;-76
2022/01/31 02:37:22;;;;;;;49.95;6.03;;;;;;;1.78;100.00;100777.09;4910619;29;20632;-76
2022/01/31 02:39:50;;;;;;;44.65;5.38;;;;;;;1.73;100.00;100769.63;4910189;29;20071;-78
2022/01/31 02:42:16;;;;;;;41.53;5.82;;;;;;;1.83;100.00;100771.66;4909169;29;20103;-77
2022/01/31 02:44:46;;;;;;;53.63;5.75;;;;;;;1.87;100.00;100763.63;4914094;29;20040;-77
2022/01/31 02:47:27;;;;;;;41.65;5.25;;;;;;;1.78;100.00;100751.25;4921645;29;20058;-77
2022/01/31 02:50:02;;;;;;;39.90;5.38;;;;;;;1.95;100.00;100745.06;4923570;29;20122;-78
2022/01/31 02:52:33;;;;;;;43.40;5.45;;;;;;;1.99;100.00;100741.38;4918892;29;20103;-76
2022/01/31 02:54:59;;;;;;;42.65;5.43;;;;;;;1.99;100.00;100746.56;4926137;29;20091;-76
2022/01/31 02:57:25;;;;;;;57.15;6.10;;;;;;;1.95;100.00;100745.06;4927180;29;20075;-77
2022/01/31 02:59:51;;;;;;;53.47;6.60;;;;;;;2.03;100.00;100734.28;4911131;29;20103;-78
2022/01/31 03:02:19;;;;;;;40.10;5.43;;;;;;;1.94;100.00;100728.72;4923474;29;20099;-76
2022/01/31 03:04:45;;;;;;;51.50;5.63;;;;;;;1.90;100.00;100711.72;4907782;29;20122;-78
2022/01/31 03:07:12;;;;;;;34.85;4.80;;;;;;;1.96;100.00;100713.13;4906953;29;20048;-77
2022/01/31 03:09:38;;;;;;;42.10;6.28;;;;;;;1.99;100.00;100691.41;4937184;29;20040;-75
2022/01/31 03:12:08;;;;;;;44.35;5.63;;;;;;;2.02;100.00;100686.06;4909301;29;20148;-78
2022/01/31 03:14:42;;;;;;;52.97;5.68;;;;;;;1.98;100.00;100680.22;4909418;29;20046;-78
2022/01/31 03:17:17;;;;;;;45.28;5.70;;;;;;;2.03;100.00;100665.25;4908694;29;20031;-77
2022/01/31 03:19:48;;;;;;;39.67;5.80;;;;;;;2.02;100.00;100652.41;4924947;29;20122;-77
2022/01/31 03:22:14;;;;;;;52.10;6.38;;;;;;;2.04;100.00;100646.22;4911319;29;20035;-76
2022/01/31 03:24:42;;;;;;;35.03;5.97;;;;;;;2.02;100.00;100626.56;4909130;29;20053;-77
2022/01/31 03:27:08;;;;;;;37.85;5.30;;;;;;;1.91;100.00;100609.91;4913105;29;20048;-77
2022/01/31 03:29:34;;;;;;;38.17;4.75;;;;;;;1.94;100.00;100601.97;4922174;29;20039;-76
2022/01/31 03:31:59;;;;;;;37.53;5.53;;;;;;;1.98;100.00;100596.59;4918051;29;20052;-77
2022/01/31 03:34:26;;;;;;;34.70;5.60;;;;;;;1.98;100.00;100591.41;4897574;29;20087;-77
2022/01/31 03:36:51;;;;;;;29.13;4.97;;;;;;;1.89;100.00;100579.91;4936411;29;20054;-77
2022/01/31 03:39:20;;;;;;;45.35;4.93;;;;;;;1.94;100.00;100583.00;4926808;29;20435;-76
2022/01/31 03:41:46;;;;;;;44.90;5.78;;;;;;;1.94;100.00;100568.34;4927152;29;20048;-78
2022/01/31 03:44:11;;;;;;;36.85;5.35;;;;;;;1.87;100.00;100563.66;4926280;29;20040;-76
2022/01/31 03:46:38;;;;;;;28.48;4.72;;;;;;;1.88;100.00;100553.19;4913411;29;20484;-77
2022/01/31 03:49:04;;;;;;;32.88;4.82;;;;;;;1.83;100.00;100539.72;4908243;29;20054;-77
2022/01/31 03:51:45;;;;;;;32.65;4.55;;;;;;;1.81;100.00;100530.38;4922092;29;20054;-79
2022/01/31 03:54:15;;;;;;;31.50;4.53;;;;;;;1.74;100.00;100507.50;4923387;29;20031;-77
2022/01/31 03:56:42;;;;;;;35.88;5.13;;;;;;;1.74;100.00;100498.91;4905037;29;20437;-79
2022/01/31 03:59:28;;;;;;;40.80;5.13;;;;;;;1.67;100.00;100503.63;4899159;29;20074;-79
2022/01/31 04:01:55;;;;;;;25.38;3.83;;;;;;;1.72;100.00;100495.59;4928575;29;20034;-76
2022/01/31 04:04:21;;;;;;;37.67;4.90;;;;;;;1.66;100.00;100481.31;4897807;29;20035;-75
2022/01/31 04:06:46;;;;;;;29.48;4.53;;;;;;;1.69;100.00;100475.91;4916413;29;20039;-76
2022/01/31 04:09:12;;;;;;;39.22;5.00;;;;;;;1.68;100.00;100463.09;4926057;29;20747;-77
2022/01/31 04:11:37;;;;;;;34.30;5.05;;;;;;;1.70;100.00;100450.91;4922477;29;20059;-76
2022/01/31 04:14:03;;;;;;;32.50;4.45;;;;;;;1.62;100.00;100437.63;4912194;29;20648;-75
2022/01/31 04:16:29;;;;;;;35.42;4.90;;;;;;;1.64;100.00;100428.00;4917760;29;20036;-76
2022/01/31 04:18:54;;;;;;;23.45;4.07;;;;;;;1.72;100.00;100412.84;4922148;29;20039;-76
2022/01/31 04:21:21;;;;;;;37.35;4.88;;;;;;;1.65;100.00;100411.56;4908156;29;20471;-79
2022/01/31 04:23:50;;;;;;;34.95;4.65;;;;;;;1.60;100.00;100414.47;4920311;29;20028;-77
2022/01/31 04:26:16;;;;;;;29.27;4.57;;;;;;;1.59;100.00;100405.03;4935933;29;20419;-75
2022/01/31 04:28:47;;;;;;;33.85;4.38;;;;;;;1.60;100.00;100398.97;4911122;29;20042;-78
2022/01/31 04:33:47;;;;;;;32.72;4.80;;;;;;;1.58;100.00;100382.69;4918240;29;20036;-78
2022/01/31 04:36:14;;;;;;;32.00;5.70;;;;;;;1.61;100.00;100369.56;4921196;29;20051;-78
2022/01/31 04:38:49;;;;;;;38.10;4.47;;;;;;;1.58;100.00;100362.00;4918765;29;20047;-76
2022/01/31 04:41:15;;;;;;;40.97;5.10;;;;;;;1.63;100.00;100353.97;4920618;29;20027;-76
2022/01/31 04:43:42;;;;;;;40.17;4.93;;;;;;;1.52;100.00;100345.13;4921367;29;20036;-77
2022/01/31 04:46:09;;;;;;;33.33;4.60;;;;;;;1.51;100.00;100330.56;4934389;28;20082;-78
2022/01/31 04:48:35;;;;;;;47.58;5.78;;;;;;;1.48;100.00;100320.41;4936946;29;20054;-77
2022/01/31 04:51:00;;;;;;;41.42;5.28;;;;;;;1.41;100.00;100316.56;4906089;29;20703;-79
2022/01/31 04:53:26;;;;;;;39.90;5.07;;;;;;;1.39;100.00;100304.66;4918552;29;20079;-76
2022/01/31 04:55:52;;;;;;;36.67;4.90;;;;;;;1.50;100.00;100304.81;4919879;29;20046;-79
2022/01/31 04:58:21;;;;;;;37.00;5.82;;;;;;;1.42;100.00;100297.56;4921810;29;20484;-79
2022/01/31 05:00:48;;;;;;;41.00;5.38;;;;;;;1.37;100.00;100297.00;4913919;29;20052;-78
2022/01/31 05:03:16;;;;;;;36.65;5.68;;;;;;;1.44;100.00;100295.69;4911293;29;20459;-77
2022/01/31 05:05:43;;;;;;;40.72;5.07;;;;;;;1.39;100.00;100291.75;4914173;29;20119;-78
2022/01/31 05:08:09;;;;;;;35.28;5.72;;;;;;;1.41;100.00;100282.97;4936233;29;20569;-79
2022/01/31 05:10:42;;;;;;;35.13;5.45;;;;;;;1.43;100.00;100278.53;4907791;29;20039;-77
2022/01/31 05:13:07;;;;;;;35.30;5.25;;;;;;;1.39;100.00;100271.06;4921739;29;20048;-78
2022/01/31 05:15:33;;;;;;;33.10;5.03;;;;;;;1.36;100.00;100256.59;4913569;29;20110;-79
2022/01/31 05:17:59;;;;;;;44.72;5.80;;;;;;;1.34;100.00;100259.28;4929293;29;20054;-77
2022/01/31 05:20:24;;;;;;;37.08;5.40;;;;;;;1.31;100.00;100253.47;4917394;29;20036;-76
2022/01/31 05:22:50;;;;;;;41.58;6.13;;;;;;;1.31;100.00;100259.47;4917024;29;20032;-78
2022/01/31 05:25:16;;;;;;;38.72;6.55;;;;;;;1.36;100.00;100244.50;4909030;29;20051;-77
2022/01/31 05:27:42;;;;;;;34.15;4.85;;;;;;;1.35;100.00;100244.59;4912105;29;20142;-78
2022/01/31 05:30:08;;;;;;;44.03;5.22;;;;;;;1.31;100.00;100240.56;4920003;29;20472;-78
2022/01/31 05:32:34;;;;;;;35.78;5.18;;;;;;;1.32;100.00;100243.06;4921823;29;20035;-76
2022/01/31 05:35:01;;;;;;;33.65;4.82;;;;;;;1.39;100.00;100235.72;4923330;29;20074;-77
2022/01/31 05:37:27;;;;;;;36.92;5.80;;;;;;;1.45;100.00;100230.16;4905535;29;20024;-77
2022/01/31 05:39:53;;;;;;;39.40;5.65;;;;;;;1.46;100.00;100218.88;4917855;29;20487;-76
2022/01/31 05:42:19;;;;;;;40.05;5.70;;;;;;;1.41;100.00;100215.75;4920527;29;20039;-77
2022/01/31 05:44:47;;;;;;;44.25;5.05;;;;;;;1.40;100.00;100202.97;4906586;29;20052;-76
2022/01/31 05:47:14;;;;;;;38.33;5.90;;;;;;;1.37;100.00;100206.56;4902277;29;20126;-79
2022/01/31 05:49:40;;;;;;;35.78;4.97;;;;;;;1.40;100.00;100205.56;4922583;29;20043;-79
2022/01/31 05:52:07;;;;;;;38.65;4.88;;;;;;;1.51;100.00;100197.91;4919757;29;20082;-76
2022/01/31 05:54:35;;;;;;;45.67;5.65;;;;;;;1.61;100.00;100200.72;4924469;29;20031;-77
2022/01/31 05:57:02;;;;;;;39.30;5.43;;;;;;;1.52;100.00;100190.03;4921024;29;20059;-77
2022/01/31 05:59:28;;;;;;;48.00;6.20;;;;;;;1.50;100.00;100189.31;4920982;29;20039;-76
2022/01/31 06:01:54;;;;;;;38.03;5.55;;;;;;;1.49;100.00;100190.25;4922757;29;20123;-75
2022/01/31 06:04:20;;;;;;;44.90;6.00;;;;;;;1.46;100.00;100182.69;4923326;29;20099;-77
2022/01/31 06:06:45;;;;;;;48.58;6.20;;;;;;;1.42;100.00;100176.09;4886317;29;20503;-77
2022/01/31 06:09:11;;;;;;;41.88;5.78;;;;;;;1.39;100.00;100173.69;4921382;29;20035;-78
2022/01/31 06:11:37;;;;;;;39.90;6.70;;;;;;;1.31;100.00;100171.63;4923021;29;20487;-78
2022/01/31 06:14:06;;;;;;;47.50;6.28;;;;;;;1.29;100.00;100160.56;4911627;29;20039;-77
2022/01/31 06:16:32;;;;;;;41.80;6.05;;;;;;;1.36;100.00;100164.41;4923033;29;20028;-78
2022/01/31 06:18:58;;;;;;;45.15;5.95;;;;;;;1.25;100.00;100164.28;4914381;29;20055;-77
2022/01/31 06:21:24;;;;;;;36.08;6.05;;;;;;;1.20;100.00;100155.16;4892946;29;20095;-76
2022/01/31 06:23:50;;;;;;;40.45;6.80;;;;;;;1.12;100.00;100153.91;4923841;29;20080;-77
2022/01/31 06:26:16;;;;;;;41.90;7.28;;;;;;;1.12;100.00;100148.75;4919888;29;20047;-77
2022/01/31 06:28:45;;;;;;;33.47;5.68;;;;;;;1.09;100.00;100148.97;4903419;29;20092;-77
2022/01/31 06:31:31;;;;;;;40.92;5.82;;;;;;;1.12;100.00;100148.75;4917805;29;20095;-78
2022/01/31 06:33:58;;;;;;;39.08;5.55;;;;;;;1.13;100.00;100145.25;4903845;29;20032;-76
2022/01/31 06:36:23;;;;;;;38.95;6.55;;;;;;;1.09;100.00;100145.53;4907955;29;20380;-76
2022/01/31 06:38:50;;;;;;;41.33;5.40;;;;;;;1.11;100.00;100143.66;4915421;29;20500;-76
2022/01/31 06:41:19;;;;;;;39.03;6.25;;;;;;;1.09;100.00;100138.63;4905883;29;20522;-77
2022/01/31 06:43:46;;;;;;;35.05;6.32;;;;;;;1.02;100.00;100139.09;4908964;29;20032;-76
2022/01/31 06:46:13;;;;;;;41.90;6.57;;;;;;;0.97;100.00;100127.31;4904296;29;20099;-78
2022/01/31 06:48:40;;;;;;;47.75;7.38;;;;;;;0.99;100.00;100129.00;4916258;29;20070;-78
2022/01/31 06:51:06;;;;;;;47.72;6.28;;;;;;;0.91;100.00;100122.56;4905969;29;20036;-76
2022/01/31 06:53:33;;;;;;;41.25;6.90;;;;;;;0.93;100.00;100120.72;4902234;29;20039;-77
2022/01/31 06:55:59;;;;;;;42.72;6.45;;;;;;;0.89;100.00;100118.44;4914388;29;20036;-76
2022/01/31 06:58:25;;;;;;;46.88;6.70;;;;;;;0.85;100.00;100120.38;4909442;29;20500;-75
2022/01/31 07:00:51;;;;;;;42.83;7.13;;;;;;;0.83;100.00;100117.06;4925449;29;20044;-78
2022/01/31 07:03:16;;;;;;;43.22;6.75;;;;;;;0.91;100.00;100112.22;4911677;29;20044;-77
2022/01/31 07:05:44;;;;;;;46.15;7.10;;;;;;;0.83;100.00;100111.91;4924837;29;20043;-76
2022/01/31 07:08:10;;;;;;;48.25;6.43;;;;;;;0.82;100.00;100099.09;4924939;29;20142;-77
2022/01/31 07:10:37;;;;;;;38.80;6.85;;;;;;;0.89;100.00;100105.53;4923190;29;20035;-77
2022/01/31 07:13:12;;;;;;;39.63;6.40;;;;;;;0.90;100.00;100100.22;4924687;29;20039;-77
2022/01/31 07:15:38;;;;;;;35.13;6.05;;;;;;;0.82;100.00;100097.34;4924706;29;20039;-75
2022/01/31 07:18:04;;;;;;;46.78;6.65;;;;;;;0.78;100.00;100085.56;4924757;29;20075;-76
2022/01/31 07:20:39;;;;;;;36.10;5.57;;;;;;;0.81;100.00;100095.69;4947278;23;20074;-78
2022/01/31 07:23:13;;;;;;;44.95;5.75;;;;;;;0.74;100.00;100097.03;4896874;29;20194;-76
2022/01/31 07:25:39;;;;;;;44.25;5.82;;;;;;;0.75;100.00;100084.00;4912878;29;20036;-76
2022/01/31 07:28:09;;;;;;;54.28;6.68;;;;;;;0.85;100.00;100091.13;4920489;29;20563;-76
2022/01/31 07:30:36;;;;;;;38.65;5.88;;;;;;;0.85;100.00;100083.38;4915847;29;20048;-76
2022/01/31 07:33:02;;;;;;;46.47;6.93;;;;;;;0.88;100.00;100080.63;4900150;29;20036;-77
2022/01/31 07:35:28;;;;;;;51.83;6.60;;;;;;;0.91;100.00;100086.41;4911753;29;20040;-77
2022/01/31 07:37:54;;;;;;;33.13;6.03;;;;;;;0.84;100.00;100080.00;4911192;29;20042;-76
2022/01/31 07:40:20;;;;;;;41.58;5.72;;;;;;;0.83;100.00;100073.19;4881768;29;20500;-76
2022/01/31 07:42:46;;;;;;;41.80;6.75;;;;;;;0.78;100.00;100070.88;4897888;29;20519;-76
2022/01/31 07:45:11;;;;;;;45.10;6.68;;;;;;;0.75;100.00;100065.09;4902915;29;20163;-76
2022/01/31 07:47:38;;;;;;;48.30;7.72;;;;;;;0.75;100.00;100067.69;4900655;29;20044;-76
2022/01/31 07:50:04;;;;;;;36.92;6.45;;;;;;;0.74;100.00;100066.84;4898534;29;20039;-77
2022/01/31 07:52:31;;;;;;;48.03;6.30;;;;;;;0.76;100.00;100070.16;4913533;29;20036;-78
2022/01/31 07:54:57;;;;;;;35.38;5.68;;;;;;;0.73;100.00;100064.38;4897680;29;20060;-75
2022/01/31 07:57:24;;;;;;;48.95;7.32;;;;;;;0.65;100.00;100069.22;4897197;29;20047;-75
2022/01/31 07:59:51;;;;;;;38.50;6.55;;;;;;;0.64;100.00;100072.72;4891067;29;20418;-77
2022/01/31 08:02:17;;;;;;;51.35;7.25;;;;;;;0.61;100.00;100063.44;4911816;29;20504;-76
2022/01/31 08:04:43;;;;;;;45.80;7.13;;;;;;;0.62;100.00;100065.06;4896295;29;20036;-77
2022/01/31 08:07:08;;;;;;;44.17;7.53;;;;;;;0.59;100.00;100047.22;4912594;29;20051;-76
2022/01/31 08:09:34;;;;;;;55.50;8.15;;;;;;;0.62;100.00;100052.16;4892385;29;20557;-77
2022/01/31 08:12:00;;;;;;;36.63;6.18;;;;;;;0.57;100.00;100056.81;4909452;29;20579;-76
2022/01/31 08:14:25;;;;;;;51.10;7.45;;;;;;;0.57;100.00;100054.22;4913828;29;20059;-77
2022/01/31 08:16:51;;;;;;;36.03;6.25;;;;;;;0.51;100.00;100070.94;4907692;29;20050;-76
2022/01/31 08:19:17;;;;;;;47.72;7.72;;;;;;;0.58;100.00;100058.44;4913042;29;20488;-75
2022/01/31 08:21:42;;;;;;;40.97;6.65;;;;;;;0.62;100.00;100062.47;4899761;29;20055;-77
2022/01/31 08:24:09;;;;;;;30.90;6.53;;;;;;;0.69;100.00;100068.09;4899976;29;20543;-77
2022/01/31 08:26:34;;;;;;;42.80;6.15;;;;;;;0.66;100.00;100069.13;4897589;29;20032;-76
2022/01/31 08:29:15;;;;;;;34.05;6.45;;;;;;;0.60;100.00;100072.06;4897255;29;20048;-77
2022/01/31 08:31:41;;;;;;;40.67;7.38;;;;;;;0.57;100.00;100067.94;4914465;29;20040;-77
2022/01/31 08:34:22;;;;;;;47.13;6.35;;;;;;;0.66;100.00;100068.28;4898087;29;20040;-76
2022/01/31 08:36:48;;;;;;;40.72;6.97;;;;;;;0.73;100.00;100061.78;4896768;29;20040;-76
2022/01/31 08:39:19;;;;;;;51.63;7.32;;;;;;;0.69;100.00;100062.94;4896582;29;20086;-76
2022/01/31 08:41:49;;;;;;;50.55;6.55;;;;;;;0.74;100.00;100066.03;4896489;29;20047;-76
2022/01/31 08:44:18;;;;;;;32.75;6.53;;;;;;;0.67;100.00;100052.69;4912074;29;20044;-75
2022/01/31 08:46:45;;;;;;;50.00;7.70;;;;;;;0.70;100.00;100052.50;4875456;29;20036;-77
2022/01/31 08:49:13;;;;;;;44.05;7.82;;;;;;;0.72;100.00;100057.56;4896435;29;20055;-76
2022/01/31 08:51:39;;;;;;;47.20;7.20;;;;;;;0.74;100.00;100050.56;4871331;29;20040;-76
2022/01/31 08:54:06;;;;;;;44.20;7.70;;;;;;;0.75;100.00;100047.88;4897886;29;20457;-76
2022/01/31 08:56:35;;;;;;;45.88;8.60;;;;;;;0.85;100.00;100053.25;4912362;29;20040;-76
2022/01/31 08:59:03;;;;;;;48.20;7.78;;;;;;;0.84;100.00;100055.94;4896903;29;20134;-76
2022/01/31 09:01:29;;;;;;;49.08;7.90;;;;;;;0.88;100.00;100055.63;4896357;29;20040;-76
2022/01/31 09:04:01;;;;;;;32.15;6.97;;;;;;;0.95;100.00;100058.63;4896771;29;20036;-75
2022/01/31 09:06:29;;;;;;;43.97;9.27;;;;;;;0.95;100.00;100069.78;4900891;29;20048;-74
2022/01/31 09:08:57;;;;;;;38.88;7.93;;;;;;;0.92;100.00;100064.84;4913586;29;20070;-76
2022/01/31 09:11:24;;;;;;;29.20;6.85;;;;;;;1.04;100.00;100067.53;4898158;29;20568;-76
2022/01/31 09:13:50;;;;;;;44.10;7.43;;;;;;;1.05;100.00;100059.66;4913880;29;20028;-76
2022/01/31 09:16:16;;;;;;;37.50;7.25;;;;;;;1.07;100.00;100075.88;4906752;29;20412;-76
2022/01/31 09:18:42;;;;;;;44.60;7.85;;;;;;;1.10;100.00;100067.13;4881643;29;20790;-76
2022/01/31 09:21:08;;;;;;;38.78;7.32;;;;;;;1.17;100.00;100074.38;4905489;29;20042;-78
2022/01/31 09:23:34;;;;;;;40.35;8.30;;;;;;;1.19;100.00;100073.41;4912855;29;20040;-76
2022/01/31 09:26:00;;;;;;;38.95;7.78;;;;;;;1.27;100.00;100076.31;4911842;29;20411;-76
2022/01/31 09:28:26;;;;;;;43.58;7.88;;;;;;;1.25;100.00;100073.84;4913384;29;20032;-75
2022/01/31 09:30:53;;;;;;;42.17;7.60;;;;;;;1.20;100.00;100068.16;4912144;29;20032;-76
2022/01/31 09:33:19;;;;;;;39.08;7.68;;;;;;;1.17;100.00;100070.97;4912607;29;20043;-75
2022/01/31 09:35:45;;;;;;;43.60;9.10;;;;;;;1.12;100.00;100073.00;4901566;29;20032;-76
2022/01/31 09:38:16;;;;;;;41.45;8.85;;;;;;;1.12;100.00;100070.44;4928010;29;20031;-75
2022/01/31 09:40:43;;;;;;;42.10;8.50;;;;;;;1.13;100.00;100061.72;4913044;29;20555;-75
2022/01/31 09:48:33;;;;;;;44.10;8.48;;;;;;;1.26;100.00;100078.09;4911669;29;20044;-75
2022/01/31 09:51:06;;;;;;;38.67;7.90;;;;;;;1.21;100.00;100080.16;4909285;29;20385;-76
2022/01/31 09:53:36;;;;;;;35.53;7.72;;;;;;;1.28;100.00;100088.31;4904202;29;20044;-76
2022/01/31 09:56:04;;;;;;;32.15;8.73;;;;;;;1.27;100.00;100104.75;4918956;29;20033;-75
2022/01/31 09:58:29;;;;;;;31.25;8.05;;;;;;;1.32;100.00;100097.53;4896280;29;20040;-76
2022/01/31 10:01:12;;;;;;;30.63;7.53;;;;;;;1.25;100.00;100101.44;4896223;29;20056;-77
2022/01/31 10:03:49;;;;;;;31.40;8.57;;;;;;;1.23;100.00;100100.72;4909739;29;20036;-76
2022/01/31 10:06:29;;;;;;;36.10;8.32;;;;;;;1.30;100.00;100101.94;4895219;29;20363;-75
2022/01/31 10:09:17;;;;;;;29.30;7.82;;;;;;;1.28;100.00;100108.97;4910557;29;20513;-75
2022/01/31 10:11:56;;;;;;;32.20;8.15;;;;;;;1.28;100.00;100104.66;4916584;29;20036;-75
2022/01/31 10:17:29;;;;;;;27.85;8.30;;;;;;;1.40;100.00;100091.84;4912166;29;20032;-76
2022/01/31 10:19:58;;;;;;;29.92;9.20;;;;;;;1.39;100.00;100074.66;4911488;29;20059;-75
2022/01/31 10:22:26;;;;;;;39.58;8.32;;;;;;;1.53;100.00;100093.47;4910305;29;20060;-77
2022/01/31 10:24:55;;;;;;;27.65;8.80;;;;;;;1.58;100.00;100093.16;4925714;29;20429;-74
2022/01/31 10:27:29;;;;;;;31.77;8.55;;;;;;;1.65;100.00;100104.72;4927622;29;20039;-75
2022/01/31 10:30:24;;;;;;;26.60;8.10;;;;;;;1.73;100.00;100107.63;4912110;29;20032;-75
2022/01/31 10:32:51;;;;;;;29.52;9.18;;;;;;;1.79;100.00;100105.53;4905510;29;20459;-76
2022/01/31 10:35:19;;;;;;;25.67;8.55;;;;;;;1.75;100.00;100108.34;4900304;29;20087;-77
2022/01/31 10:37:45;;;;;;;25.13;8.27;;;;;;;1.69;100.00;100113.13;4901375;29;20096;-75
2022/01/31 10:46:08;;;;;;;15.90;5.28;;;;;;;1.58;100.00;100133.69;4893890;29;20048;-75
2022/01/31 10:54:08;;;;;;;20.67;7.40;;;;;;;1.61;100.00;100146.44;4916116;29;20122;-75
2022/01/31 10:56:39;;;;;;;19.65;6.55;;;;;;;1.63;100.00;100145.38;4912574;29;20493;-75
2022/01/31 10:59:06;;;;;;;19.00;5.60;;;;;;;1.71;100.00;100144.84;4915170;29;20056;-75
2022/01/31 11:01:32;;;;;;;20.70;6.28;;;;;;;1.67;100.00;100141.66;4924909;29;20039;-75
2022/01/31 11:04:04;;;;;;;13.30;5.80;;;;;;;1.80;100.00;100148.59;4911259;29;20052;-75
2022/01/31 11:06:31;;;;;;;12.32;4.93;;;;;;;1.77;100.00;100149.59;4909745;29;20035;-75
2022/01/31 11:09:10;;;;;;;13.23;4.70;;;;;;;1.77;100.00;100148.78;4917778;29;20046;-75
2022/01/31 11:11:43;;;;;;;18.60;5.50;;;;;;;1.78;100.00;100156.44;4911485;29;20043;-76
2022/01/31 11:14:10;;;;;;;16.90;6.22;;;;;;;1.75;100.00;100172.16;4912286;29;20381;-75
2022/01/31 11:16:38;;;;;;;13.30;6.05;;;;;;;1.83;100.00;100175.06;4914676;29;20028;-75
2022/01/31 11:19:08;;;;;;;10.93;5.13;;;;;;;1.79;100.00;100176.22;4909735;29;20576;-75
2022/01/31 11:21:37;;;;;;;13.80;5.13;;;;;;;1.83;100.00;100197.50;4916823;29;20046;-75
2022/01/31 11:24:06;;;;;;;18.13;5.35;;;;;;;1.81;100.00;100201.94;4918224;29;20040;-76
2022/01/31 11:26:36;;;;;;;10.52;4.32;;;;;;;1.80;100.00;100193.38;4916657;29;20028;-75
2022/01/31 11:29:04;;;;;;;12.10;4.47;;;;;;;1.82;100.00;100196.69;4880464;29;20055;-76
2022/01/31 11:31:30;;;;;;;12.98;4.13;;;;;;;1.84;100.00;100192.22;4902903;29;20501;-75
2022/01/31 11:33:58;;;;;;;15.90;4.97;;;;;;;1.83;100.00;100190.59;4920978;29;20039;-76
2022/01/31 11:36:24;;;;;;;12.70;4.95;;;;;;;1.83;100.00;100197.50;4919205;29;20032;-74
2022/01/31 11:38:51;;;;;;;15.05;5.05;;;;;;;1.82;100.00;100204.44;4915810;29;20048;-76
2022/01/31 11:41:18;;;;;;;15.27;6.13;;;;;;;1.85;100.00;100201.66;4912163;29;20564;-74
2022/01/31 11:43:55;;;;;;;19.85;6.00;;;;;;;1.99;100.00;100198.13;4920064;29;20110;-76
2022/01/31 11:46:24;;;;;;;23.98;6.45;;;;;;;2.03;100.00;100204.72;4924526;29;20054;-75
2022/01/31 11:48:52;;;;;;;19.88;6.32;;;;;;;2.02;100.00;100203.09;4898836;29;20044;-75